Time;durP1;ratioP1;P1;durP2;ratioP2;P2;SDS_P1;SDS_P2;PMS_P1;PMS_P2;Temp;Humidity;BMP_temperature;BMP_pressure;BME280_temperature;BME280_humidity;BME280_pressure;Samples;Min_cycle;Max_cycle;Signal;HPM_P1;HPM_P2
2021/08/16 00:00:42;;;;;;;1999.90;999.90;;;18.70;99.90;;;;;;5014659;28;20538;-67
2021/08/16 00:03:08;;;;;;;1999.90;999.90;;;18.60;99.90;;;;;;5014309;28;20209;-67
2021/08/16 00:05:34;;;;;;;1999.90;999.90;;;18.60;99.90;;;;;;5013703;28;20442;-67
2021/08/16 00:07:59;;;;;;;1999.90;999.90;;;18.40;99.90;;;;;;5014353;28;20181;-67
2021/08/16 00:10:25;;;;;;;1999.90;999.90;;;18.30;99.90;;;;;;5014381;28;20181;-67
2021/08/16 00:12:50;;;;;;;1999.90;999.90;;;18.20;99.90;;;;;;5014188;28;20784;-67
2021/08/16 00:15:16;;;;;;;1999.90;999.90;;;18.10;99.90;;;;;;5014132;28;20181;-67
2021/08/16 00:17:42;;;;;;;1999.90;999.90;;;18.00;99.90;;;;;;5014280;28;20641;-67
2021/08/16 00:20:09;;;;;;;1999.90;999.90;;;17.90;99.90;;;;;;5014076;28;20239;-68
2021/08/16 00:22:35;;;;;;;1999.90;999.90;;;17.80;99.90;;;;;;5014015;28;20700;-67
2021/08/16 00:25:00;;;;;;;1999.90;999.90;;;17.70;99.90;;;;;;5013839;28;20439;-67
2021/08/16 00:27:26;;;;;;;1999.90;999.90;;;17.70;99.90;;;;;;5014011;28;20412;-67
2021/08/16 00:29:52;;;;;;;1999.90;999.90;;;17.60;99.90;;;;;;5014004;28;20177;-67
2021/08/16 00:32:17;;;;;;;1999.90;999.90;;;17.60;99.90;;;;;;5014031;28;20169;-67
2021/08/16 00:34:43;;;;;;;1999.90;999.90;;;17.50;99.90;;;;;;5013637;28;20171;-67
2021/08/16 00:37:08;;;;;;;1999.90;999.90;;;17.50;99.90;;;;;;5013868;28;20176;-67
2021/08/16 00:39:34;;;;;;;1999.90;999.90;;;17.50;99.90;;;;;;5013827;28;20181;-67
2021/08/16 00:42:00;;;;;;;1999.90;999.90;;;17.50;99.90;;;;;;5013623;28;20203;-67
2021/08/16 00:44:25;;;;;;;1999.90;999.90;;;17.40;99.90;;;;;;5013406;28;20196;-67
2021/08/16 00:46:51;;;;;;;1999.90;999.90;;;17.30;99.90;;;;;;5013797;28;20232;-67
2021/08/16 00:49:17;;;;;;;1999.90;999.90;;;17.30;99.90;;;;;;5013696;28;20173;-67
2021/08/16 00:51:43;;;;;;;1999.90;999.90;;;17.20;99.90;;;;;;5013487;28;20412;-67
2021/08/16 00:54:09;;;;;;;1999.90;999.90;;;17.20;99.90;;;;;;5013134;28;20687;-67
2021/08/16 00:56:37;;;;;;;1999.90;999.90;;;17.20;99.90;;;;;;5013593;28;20905;-67
2021/08/16 00:59:06;;;;;;;1999.90;999.90;;;17.10;99.90;;;;;;5013551;28;20415;-67
2021/08/16 01:01:32;;;;;;;1999.90;999.90;;;17.10;99.90;;;;;;5013370;28;20461;-67
2021/08/16 01:03:58;;;;;;;1999.90;999.90;;;17.10;99.90;;;;;;5013016;28;21096;-67
2021/08/16 01:06:24;;;;;;;1999.90;999.90;;;17.00;99.90;;;;;;5013324;28;20178;-67
2021/08/16 01:08:50;;;;;;;1999.90;999.90;;;17.00;99.90;;;;;;5013482;28;20490;-67
2021/08/16 01:11:16;;;;;;;1999.90;999.90;;;17.00;99.90;;;;;;5013225;28;20183;-67
2021/08/16 01:13:43;;;;;;;1999.90;999.90;;;17.00;99.90;;;;;;5012996;28;20436;-67
2021/08/16 01:16:09;;;;;;;1999.90;999.90;;;17.00;99.90;;;;;;5012135;28;20875;-67
2021/08/16 01:18:36;;;;;;;1999.90;999.90;;;16.90;99.90;;;;;;5013253;28;20894;-67
2021/08/16 01:21:07;;;;;;;1999.90;999.90;;;16.90;99.90;;;;;;5012885;28;20455;-67
2021/08/16 01:23:33;;;;;;;1999.90;999.90;;;16.80;99.90;;;;;;5013030;28;20801;-67
2021/08/16 01:25:59;;;;;;;1999.90;999.90;;;16.80;99.90;;;;;;5012734;28;20414;-67
2021/08/16 01:28:25;;;;;;;1999.90;999.90;;;16.80;99.90;;;;;;5013077;28;20424;-67
2021/08/16 01:31:01;;;;;;;1999.90;999.90;;;16.80;99.90;;;;;;5012926;28;20419;-67
2021/08/16 01:33:27;;;;;;;1999.90;999.90;;;16.80;99.90;;;;;;5012752;28;20471;-67
2021/08/16 01:35:53;;;;;;;1999.90;999.90;;;16.80;99.90;;;;;;5012587;28;20404;-67
2021/08/16 01:38:33;;;;;;;1999.90;999.90;;;16.80;99.90;;;;;;5012780;28;20511;-67
2021/08/16 01:40:59;;;;;;;1999.90;999.90;;;16.80;99.90;;;;;;5012769;28;20599;-67
2021/08/16 01:43:25;;;;;;;1999.90;999.90;;;16.70;99.90;;;;;;5012649;28;20438;-67
2021/08/16 01:45:52;;;;;;;1999.90;999.90;;;16.70;99.90;;;;;;5012439;28;20415;-67
2021/08/16 01:48:18;;;;;;;1999.90;999.90;;;16.70;99.90;;;;;;5012597;28;20511;-67
2021/08/16 01:50:44;;;;;;;1999.90;999.90;;;16.70;99.90;;;;;;5012596;28;20869;-67
2021/08/16 01:53:11;;;;;;;1999.90;999.90;;;16.70;99.90;;;;;;5012348;28;20447;-67
2021/08/16 01:55:38;;;;;;;1999.90;999.90;;;16.70;99.90;;;;;;5012236;28;20835;-67
2021/08/16 01:58:04;;;;;;;1999.90;999.90;;;16.60;99.90;;;;;;5012558;28;20475;-67
2021/08/16 02:00:30;;;;;;;1999.90;999.90;;;16.60;99.90;;;;;;5012309;28;20461;-67
2021/08/16 02:02:56;;;;;;;1999.90;999.90;;;16.60;99.90;;;;;;5012332;28;20520;-67
2021/08/16 02:05:21;;;;;;;1999.90;999.90;;;16.60;99.90;;;;;;5012126;28;20568;-67
2021/08/16 02:07:47;;;;;;;1999.90;999.90;;;16.50;99.90;;;;;;5012478;28;20180;-67
2021/08/16 02:10:13;;;;;;;1999.90;999.90;;;16.50;99.90;;;;;;5012217;28;20540;-67
2021/08/16 02:12:38;;;;;;;1999.90;999.90;;;16.60;99.90;;;;;;5012449;28;20254;-67
2021/08/16 02:15:09;;;;;;;1999.90;999.90;;;16.60;99.90;;;;;;5011886;28;20179;-67
2021/08/16 02:17:35;;;;;;;1999.90;999.90;;;16.60;99.90;;;;;;5012197;28;20407;-67
2021/08/16 02:20:00;;;;;;;1999.90;999.90;;;16.60;99.90;;;;;;5012106;28;20408;-67
2021/08/16 02:22:26;;;;;;;1999.90;999.90;;;16.70;99.90;;;;;;5012135;28;20170;-67
2021/08/16 02:24:52;;;;;;;1999.90;999.90;;;16.70;99.90;;;;;;5011853;28;20260;-67
2021/08/16 02:27:18;;;;;;;1999.90;999.90;;;16.70;99.90;;;;;;5013484;28;20180;-67
2021/08/16 02:29:44;;;;;;;1999.90;999.90;;;16.70;99.90;;;;;;5016282;28;20653;-67
2021/08/16 02:32:10;;;;;;;1999.90;999.90;;;16.70;99.90;;;;;;5016232;28;20420;-67
2021/08/16 02:34:35;;;;;;;1999.90;999.90;;;16.80;99.90;;;;;;5015865;28;20921;-67
2021/08/16 02:37:01;;;;;;;1999.90;999.90;;;16.80;99.90;;;;;;5016105;28;20187;-67
2021/08/16 02:39:27;;;;;;;1999.90;999.90;;;16.80;99.90;;;;;;5016020;28;20238;-67
2021/08/16 02:41:52;;;;;;;1999.90;999.90;;;16.80;99.90;;;;;;5015936;28;20207;-67
2021/08/16 02:44:18;;;;;;;1999.90;999.90;;;16.80;99.90;;;;;;5015623;28;20190;-67
2021/08/16 02:46:43;;;;;;;1999.90;999.90;;;16.80;99.90;;;;;;5015944;28;20180;-67
2021/08/16 02:49:09;;;;;;;1999.90;999.90;;;16.80;99.90;;;;;;5015936;28;20251;-67
2021/08/16 02:51:34;;;;;;;1999.90;999.90;;;16.80;99.90;;;;;;5015926;28;20551;-67
2021/08/16 02:54:00;;;;;;;1999.90;999.90;;;16.80;99.90;;;;;;5015365;28;20214;-67
2021/08/16 02:56:26;;;;;;;1999.90;999.90;;;16.90;99.90;;;;;;5015801;28;20541;-67
2021/08/16 02:58:51;;;;;;;1999.90;999.90;;;16.90;99.90;;;;;;5015697;28;20190;-67
2021/08/16 03:01:17;;;;;;;1999.90;999.90;;;16.90;99.90;;;;;;5015816;28;20321;-68
2021/08/16 03:03:42;;;;;;;1999.90;999.90;;;16.90;99.90;;;;;;5015438;28;20792;-67
2021/08/16 03:06:08;;;;;;;1999.90;999.90;;;16.90;99.90;;;;;;5015466;28;20176;-67
2021/08/16 03:08:35;;;;;;;1999.90;999.90;;;16.70;99.90;;;;;;5015503;28;20258;-67
2021/08/16 03:11:03;;;;;;;1999.90;999.90;;;16.70;99.90;;;;;;5015537;28;20192;-67
2021/08/16 03:13:28;;;;;;;1999.90;999.90;;;16.70;99.90;;;;;;5015372;28;20428;-67
2021/08/16 03:15:54;;;;;;;1999.90;999.90;;;16.70;99.90;;;;;;5015152;28;20581;-67
2021/08/16 03:18:20;;;;;;;1999.90;999.90;;;16.70;99.90;;;;;;5015319;28;20439;-67
2021/08/16 03:20:45;;;;;;;1999.90;999.90;;;16.70;99.90;;;;;;5015287;28;20239;-67
2021/08/16 03:23:11;;;;;;;1999.90;999.90;;;16.70;99.90;;;;;;5015185;28;20572;-67
2021/08/16 03:25:36;;;;;;;1999.90;999.90;;;16.80;99.90;;;;;;5015026;28;20539;-67
2021/08/16 03:28:02;;;;;;;1999.90;999.90;;;16.70;99.90;;;;;;5015139;28;20596;-67
2021/08/16 03:30:28;;;;;;;1999.90;999.90;;;16.70;99.90;;;;;;5015328;28;20185;-68
2021/08/16 03:32:54;;;;;;;1999.90;999.90;;;16.70;99.90;;;;;;5015226;28;20482;-67
2021/08/16 03:35:19;;;;;;;1999.90;999.90;;;16.70;99.90;;;;;;5014834;28;20260;-67
2021/08/16 03:37:46;;;;;;;1999.90;999.90;;;16.70;99.90;;;;;;5015076;28;20180;-67
2021/08/16 03:40:13;;;;;;;1999.90;999.90;;;16.70;99.90;;;;;;5013734;28;20234;-67
2021/08/16 03:42:39;;;;;;;1999.90;999.90;;;16.70;99.90;;;;;;5014763;28;20807;-67
2021/08/16 03:45:10;;;;;;;1999.90;999.90;;;16.70;99.90;;;;;;5015085;28;20406;-68
2021/08/16 03:47:36;;;;;;;1999.90;999.90;;;16.60;99.90;;;;;;5014777;28;20469;-68
2021/08/16 03:50:03;;;;;;;1999.90;999.90;;;16.60;99.90;;;;;;5014857;28;20416;-68
2021/08/16 03:52:28;;;;;;;1999.90;999.90;;;16.60;99.90;;;;;;5014658;28;20606;-68
2021/08/16 03:54:54;;;;;;;1999.90;999.90;;;16.60;99.90;;;;;;5014458;28;20440;-68
2021/08/16 03:57:19;;;;;;;1999.90;999.90;;;16.70;99.90;;;;;;5014629;28;20648;-68
2021/08/16 03:59:45;;;;;;;1999.90;999.90;;;16.60;99.90;;;;;;5014621;28;20582;-68
2021/08/16 04:02:11;;;;;;;1999.90;999.90;;;16.60;99.90;;;;;;5014487;28;20208;-68
2021/08/16 04:04:36;;;;;;;1999.90;999.90;;;16.60;99.90;;;;;;5014181;28;20199;-68
2021/08/16 04:07:02;;;;;;;1999.90;999.90;;;16.60;99.90;;;;;;5014490;28;20267;-68
2021/08/16 04:09:27;;;;;;;1999.90;999.90;;;16.60;99.90;;;;;;5014419;28;20171;-68
2021/08/16 04:11:53;;;;;;;1999.90;999.90;;;16.60;99.90;;;;;;5014262;28;20200;-68
2021/08/16 04:14:18;;;;;;;1999.90;999.90;;;16.60;99.90;;;;;;5013990;28;20672;-68
2021/08/16 04:16:44;;;;;;;1999.90;999.90;;;16.60;99.90;;;;;;5014332;28;20176;-68
2021/08/16 04:19:10;;;;;;;1999.90;999.90;;;16.60;99.90;;;;;;5014247;28;20234;-68
2021/08/16 04:21:36;;;;;;;1999.90;999.90;;;16.60;99.90;;;;;;5014103;28;20254;-68
2021/08/16 04:24:01;;;;;;;1999.90;999.90;;;16.60;99.90;;;;;;4996179;28;20444;-68
2021/08/16 04:26:27;;;;;;;1999.90;999.90;;;16.60;99.90;;;;;;5014050;28;20180;-68
2021/08/16 04:28:52;;;;;;;1999.90;999.90;;;16.60;99.90;;;;;;5014084;28;20180;-68
2021/08/16 04:31:18;;;;;;;1999.90;999.90;;;16.60;99.90;;;;;;5014130;28;20239;-68
2021/08/16 04:33:43;;;;;;;1999.90;999.90;;;16.70;99.90;;;;;;5013684;28;20193;-68
2021/08/16 04:36:09;;;;;;;1999.90;999.90;;;16.60;99.90;;;;;;5013760;28;20172;-68
2021/08/16 04:38:35;;;;;;;1999.90;999.90;;;16.70;99.90;;;;;;5013824;28;20229;-68
2021/08/16 04:41:00;;;;;;;1999.90;999.90;;;16.70;99.90;;;;;;5013714;28;20195;-68
2021/08/16 04:43:26;;;;;;;1999.90;999.90;;;16.70;99.90;;;;;;5013647;28;20189;-68
2021/08/16 04:45:52;;;;;;;1999.90;999.90;;;16.60;99.90;;;;;;5013518;28;20226;-68
2021/08/16 04:48:18;;;;;;;1999.90;999.90;;;16.60;99.90;;;;;;5013650;28;20795;-68
2021/08/16 04:50:44;;;;;;;1999.90;999.90;;;16.60;99.90;;;;;;5013432;28;20526;-68
2021/08/16 04:53:10;;;;;;;1999.90;999.90;;;16.70;99.90;;;;;;5013440;28;20663;-68
2021/08/16 04:55:35;;;;;;;1999.90;999.90;;;16.60;99.90;;;;;;5013191;28;20517;-68
2021/08/16 04:58:01;;;;;;;1999.90;999.90;;;16.60;99.90;;;;;;5013492;28;20441;-68
2021/08/16 05:00:27;;;;;;;1999.90;999.90;;;16.70;99.90;;;;;;5013423;28;20191;-68
2021/08/16 05:02:54;;;;;;;1999.90;999.90;;;16.60;99.90;;;;;;5013323;28;20188;-68
2021/08/16 05:05:22;;;;;;;1999.90;999.90;;;16.70;99.90;;;;;;5013126;28;20191;-68
2021/08/16 05:07:55;;;;;;;1999.90;999.90;;;16.70;99.90;;;;;;5013366;28;20815;-67
2021/08/16 05:10:22;;;;;;;1999.90;999.90;;;16.70;99.90;;;;;;5013451;28;20416;-68
2021/08/16 05:12:49;;;;;;;1999.90;999.90;;;16.60;99.90;;;;;;5013358;28;20432;-68
2021/08/16 05:15:15;;;;;;;1999.90;999.90;;;16.70;99.90;;;;;;5012873;28;20407;-68
2021/08/16 05:17:41;;;;;;;1999.90;999.90;;;16.70;99.90;;;;;;5013127;28;20417;-68
2021/08/16 05:20:08;;;;;;;1999.90;999.90;;;16.70;99.90;;;;;;5012979;28;20419;-68
2021/08/16 05:22:35;;;;;;;1999.90;999.90;;;16.60;99.90;;;;;;5012956;28;20516;-68
2021/08/16 05:25:01;;;;;;;1999.90;999.90;;;16.70;99.90;;;;;;5012736;28;20420;-68
2021/08/16 05:27:27;;;;;;;1999.90;999.90;;;16.70;99.90;;;;;;5013024;28;20414;-67
2021/08/16 05:29:52;;;;;;;1999.90;999.90;;;16.70;99.90;;;;;;5013045;28;20188;-68
2021/08/16 05:32:18;;;;;;;1999.90;999.90;;;16.70;99.90;;;;;;5012935;28;20661;-68
2021/08/16 05:34:44;;;;;;;1999.90;999.90;;;16.80;99.90;;;;;;5012485;28;20283;-68
2021/08/16 05:37:10;;;;;;;1999.90;999.90;;;16.80;99.90;;;;;;5012774;28;20303;-68
2021/08/16 05:39:35;;;;;;;1999.90;999.90;;;16.80;99.90;;;;;;5012773;28;20437;-68
2021/08/16 05:42:02;;;;;;;1999.90;999.90;;;16.80;99.90;;;;;;5012736;28;20460;-68
2021/08/16 05:44:28;;;;;;;1999.90;999.90;;;16.90;99.90;;;;;;5012289;28;20721;-68
2021/08/16 05:46:54;;;;;;;1999.90;999.90;;;16.90;99.90;;;;;;5012684;28;20461;-68
2021/08/16 05:49:20;;;;;;;1999.90;999.90;;;17.00;99.90;;;;;;5012556;28;20436;-68
2021/08/16 05:51:46;;;;;;;1999.90;999.90;;;17.00;99.90;;;;;;5012510;28;20411;-68
2021/08/16 05:54:12;;;;;;;1999.90;999.90;;;17.00;99.90;;;;;;5012105;28;20467;-68
2021/08/16 05:56:37;;;;;;;1999.90;999.90;;;17.10;99.90;;;;;;5012673;28;20237;-67
2021/08/16 05:59:03;;;;;;;1999.90;999.90;;;17.10;99.90;;;;;;5012564;28;20589;-68
2021/08/16 06:01:28;;;;;;;1999.90;999.90;;;17.10;99.90;;;;;;5011849;28;20195;-68
2021/08/16 06:03:54;;;;;;;1999.90;999.90;;;17.10;99.90;;;;;;5012105;28;20192;-68
2021/08/16 06:06:20;;;;;;;1999.90;999.90;;;17.10;99.90;;;;;;5012280;28;20672;-68
2021/08/16 06:08:45;;;;;;;1999.90;999.90;;;17.10;99.90;;;;;;5012390;28;20639;-68
2021/08/16 06:11:11;;;;;;;1999.90;999.90;;;17.10;99.90;;;;;;5012841;28;20581;-68
2021/08/16 06:13:37;;;;;;;1999.90;999.90;;;17.20;99.90;;;;;;5012944;28;20659;-69
2021/08/16 06:16:02;;;;;;;1999.90;999.90;;;17.20;99.90;;;;;;5012756;28;20180;-67
2021/08/16 06:18:28;;;;;;;1999.90;999.90;;;17.30;99.90;;;;;;5012537;28;20177;-67
2021/08/16 06:20:54;;;;;;;1999.90;999.90;;;17.30;99.90;;;;;;5012558;28;20204;-69
2021/08/16 06:23:20;;;;;;;1999.90;999.90;;;17.30;99.90;;;;;;5012787;28;20196;-66
2021/08/16 06:25:46;;;;;;;1999.90;999.90;;;17.30;99.90;;;;;;5012475;28;20414;-68
2021/08/16 06:28:11;;;;;;;1999.90;999.90;;;17.30;99.90;;;;;;5012870;28;20172;-69
2021/08/16 06:30:37;;;;;;;1999.90;999.90;;;17.40;99.90;;;;;;5012552;28;20523;-68
2021/08/16 06:33:03;;;;;;;1999.90;999.90;;;17.30;99.90;;;;;;5012620;28;20197;-68
2021/08/16 06:35:28;;;;;;;1999.90;999.90;;;17.40;99.90;;;;;;5012114;28;20177;-68
2021/08/16 06:37:55;;;;;;;1999.90;999.90;;;17.40;99.90;;;;;;5012400;28;20775;-67
2021/08/16 06:40:20;;;;;;;1999.90;999.90;;;17.40;99.90;;;;;;5012207;28;20669;-67
2021/08/16 06:42:46;;;;;;;1999.90;999.90;;;17.40;99.90;;;;;;5012412;28;20433;-68
2021/08/16 06:45:12;;;;;;;1999.90;999.90;;;17.50;99.90;;;;;;5012222;28;20282;-68
2021/08/16 06:47:38;;;;;;;1999.90;999.90;;;17.40;99.90;;;;;;5012479;28;20272;-68
2021/08/16 06:50:04;;;;;;;1999.90;999.90;;;17.50;99.90;;;;;;5005173;28;20180;-68
2021/08/16 06:52:30;;;;;;;1999.90;999.90;;;17.50;99.90;;;;;;5008996;28;20953;-68
2021/08/16 06:54:55;;;;;;;1999.90;999.90;;;17.60;99.90;;;;;;5012164;28;20403;-69
2021/08/16 06:57:24;;;;;;;1999.90;999.90;;;17.60;99.90;;;;;;5012457;28;20520;-68
2021/08/16 06:59:50;;;;;;;1999.90;999.90;;;17.70;99.90;;;;;;5012483;28;20220;-68
2021/08/16 07:02:16;;;;;;;1999.90;999.90;;;17.70;99.90;;;;;;5012149;28;20874;-68
2021/08/16 07:04:41;;;;;;;1999.90;999.90;;;17.80;99.90;;;;;;5012089;28;20475;-68
2021/08/16 07:07:07;;;;;;;1999.90;999.90;;;17.90;99.90;;;;;;5012453;28;20533;-67
2021/08/16 07:09:32;;;;;;;1999.90;999.90;;;17.90;99.90;;;;;;5010098;28;20232;-68
2021/08/16 07:11:58;;;;;;;1999.90;999.90;;;18.00;99.90;;;;;;4992371;28;20201;-67
2021/08/16 07:14:24;;;;;;;1999.90;999.90;;;18.00;99.90;;;;;;4994690;28;20236;-67
2021/08/16 07:16:49;;;;;;;1999.90;999.90;;;18.10;99.90;;;;;;4995855;28;20637;-68
2021/08/16 07:19:15;;;;;;;1999.90;999.90;;;18.20;99.90;;;;;;4995753;28;20182;-67
2021/08/16 07:21:40;;;;;;;1999.90;999.90;;;18.20;99.90;;;;;;4995634;28;20240;-66
2021/08/16 07:24:06;;;;;;;1999.90;999.90;;;18.40;99.90;;;;;;4995435;28;20194;-66
2021/08/16 07:26:32;;;;;;;1999.90;999.90;;;18.40;99.90;;;;;;4995793;28;20253;-68
2021/08/16 07:28:57;;;;;;;1999.90;999.90;;;18.40;99.90;;;;;;4995699;28;20172;-67
2021/08/16 07:31:23;;;;;;;1999.90;999.90;;;18.30;99.90;;;;;;4995591;28;20187;-66
2021/08/16 07:33:49;;;;;;;1999.90;999.90;;;18.30;99.90;;;;;;4995158;28;20200;-67
2021/08/16 07:36:15;;;;;;;1999.90;999.90;;;18.20;99.90;;;;;;4995405;28;20586;-66
2021/08/16 07:38:41;;;;;;;1999.90;999.90;;;18.30;99.90;;;;;;4995414;28;20498;-66
2021/08/16 07:41:06;;;;;;;1999.90;999.90;;;18.40;99.90;;;;;;4995334;28;20236;-66
2021/08/16 07:43:32;;;;;;;1999.90;999.90;;;18.50;99.90;;;;;;4995299;28;20200;-67
2021/08/16 07:45:57;;;;;;;1999.90;999.90;;;18.50;99.90;;;;;;4995057;28;20725;-67
2021/08/16 07:48:23;;;;;;;1999.90;999.90;;;18.60;99.90;;;;;;4995483;28;20170;-66
2021/08/16 07:50:49;;;;;;;1999.90;999.90;;;18.70;99.90;;;;;;4995142;28;20538;-67
2021/08/16 07:53:15;;;;;;;1999.90;999.90;;;18.60;99.90;;;;;;4995099;28;20228;-66
2021/08/16 07:55:41;;;;;;;1999.90;999.90;;;18.60;99.90;;;;;;4994816;28;20469;-66
2021/08/16 07:58:07;;;;;;;1999.90;999.90;;;18.60;99.90;;;;;;4995153;28;20171;-67
2021/08/16 08:00:33;;;;;;;1999.90;999.90;;;18.60;99.90;;;;;;4994927;28;20503;-66
2021/08/16 08:02:58;;;;;;;1999.90;999.90;;;18.60;99.90;;;;;;4994977;28;20228;-67
2021/08/16 08:05:24;;;;;;;1999.90;999.90;;;18.60;99.90;;;;;;4995098;28;20218;-68
2021/08/16 08:07:51;;;;;;;1999.90;999.90;;;18.70;99.90;;;;;;4994843;28;20255;-68
2021/08/16 08:10:18;;;;;;;1999.90;999.90;;;18.70;99.90;;;;;;4994977;28;20848;-68
2021/08/16 08:12:45;;;;;;;1999.90;999.90;;;18.80;99.90;;;;;;4994724;28;20421;-68
2021/08/16 08:15:12;;;;;;;1999.90;999.90;;;18.90;99.90;;;;;;4994492;28;20419;-68
2021/08/16 08:17:37;;;;;;;1999.90;999.90;;;19.00;99.90;;;;;;4994557;28;20411;-68
2021/08/16 08:20:05;;;;;;;1999.90;999.90;;;19.10;99.90;;;;;;4994759;28;20414;-68
2021/08/16 08:22:31;;;;;;;1999.90;999.90;;;19.20;99.90;;;;;;4994357;28;20303;-68
2021/08/16 08:24:57;;;;;;;1999.90;999.90;;;19.10;99.90;;;;;;4993892;28;20386;-68
2021/08/16 08:27:23;;;;;;;1999.90;999.90;;;19.10;99.90;;;;;;4994508;28;20782;-68
2021/08/16 08:29:48;;;;;;;1999.90;999.90;;;19.10;99.90;;;;;;4994527;28;20178;-68
2021/08/16 08:32:14;;;;;;;1999.90;999.90;;;19.20;99.90;;;;;;4994237;28;20188;-68
2021/08/16 08:34:40;;;;;;;1999.90;999.90;;;19.30;99.90;;;;;;4994098;28;20201;-68
2021/08/16 08:37:10;;;;;;;1999.90;999.90;;;19.50;99.90;;;;;;4994128;28;20499;-68
2021/08/16 08:39:39;;;;;;;1999.90;999.90;;;19.60;99.90;;;;;;4994420;28;20210;-68
2021/08/16 08:42:06;;;;;;;1999.90;999.90;;;19.60;99.90;;;;;;4994180;28;20451;-68
2021/08/16 08:44:32;;;;;;;1999.90;999.90;;;19.70;99.90;;;;;;4993674;28;20437;-68
2021/08/16 08:46:58;;;;;;;1999.90;999.90;;;19.60;99.90;;;;;;4994120;28;20489;-68
2021/08/16 08:49:24;;;;;;;1999.90;999.90;;;19.70;99.90;;;;;;4994060;28;20386;-68
2021/08/16 08:51:50;;;;;;;1999.90;999.90;;;19.70;99.90;;;;;;5002823;28;20423;-68
2021/08/16 08:54:19;;;;;;;1999.90;999.90;;;19.80;99.90;;;;;;5013144;28;20248;-68
2021/08/16 08:56:44;;;;;;;1999.90;999.90;;;19.90;99.90;;;;;;5009918;28;20635;-70
2021/08/16 08:59:11;;;;;;;1999.90;999.90;;;19.90;99.90;;;;;;5008854;28;20427;-70
2021/08/16 09:01:37;;;;;;;1999.90;999.90;;;19.90;99.90;;;;;;5011045;28;20969;-70
2021/08/16 09:04:03;;;;;;;1999.90;999.90;;;20.00;99.90;;;;;;5010179;28;20428;-69
2021/08/16 09:06:30;;;;;;;1999.90;999.90;;;20.10;99.90;;;;;;5011383;28;20407;-69
2021/08/16 09:08:57;;;;;;;1999.90;999.90;;;20.20;99.90;;;;;;5011089;28;21020;-69
2021/08/16 09:11:27;;;;;;;1999.90;999.90;;;20.30;99.90;;;;;;5010736;28;20424;-71
2021/08/16 09:14:04;;;;;;;1999.90;999.90;;;20.10;99.90;;;;;;5011295;28;20443;-70
2021/08/16 09:16:37;;;;;;;1999.90;999.90;;;20.00;99.90;;;;;;5011354;28;20411;-70
2021/08/16 09:19:12;;;;;;;1999.90;999.90;;;20.00;99.90;;;;;;5011290;28;20408;-70
2021/08/16 09:21:41;;;;;;;1999.90;999.90;;;20.10;99.90;;;;;;5010914;28;20458;-70
2021/08/16 09:24:07;;;;;;;1999.90;999.90;;;20.10;99.90;;;;;;5011128;28;20433;-70
2021/08/16 09:26:38;;;;;;;1999.90;999.90;;;20.10;99.90;;;;;;5010874;28;20450;-70
2021/08/16 09:29:09;;;;;;;1999.90;999.90;;;20.30;99.90;;;;;;5011384;28;20177;-68
2021/08/16 09:31:35;;;;;;;1999.90;999.90;;;20.40;99.90;;;;;;5010972;28;20446;-68
2021/08/16 09:34:01;;;;;;;1999.90;999.90;;;20.50;99.90;;;;;;5010477;28;20464;-67
2021/08/16 09:36:37;;;;;;;1999.90;999.90;;;20.50;99.90;;;;;;5008566;28;20188;-69
2021/08/16 09:39:22;;;;;;;1999.90;999.90;;;20.40;99.90;;;;;;5007640;28;20909;-68
2021/08/16 09:41:59;;;;;;;1999.90;999.90;;;20.40;99.90;;;;;;5009727;28;20509;-67
2021/08/16 09:44:25;;;;;;;1999.90;999.90;;;20.30;99.90;;;;;;5010373;28;20435;-68
2021/08/16 09:47:17;;;;;;;1999.90;999.90;;;20.30;99.90;;;;;;5010812;28;20507;-69
2021/08/16 09:49:43;;;;;;;1999.90;999.90;;;20.30;99.90;;;;;;5006959;28;20478;-69
2021/08/16 09:52:11;;;;;;;1999.90;999.90;;;20.20;99.90;;;;;;5011061;28;20386;-68
2021/08/16 09:54:38;;;;;;;1999.90;999.90;;;20.10;99.90;;;;;;5010434;28;20208;-68
2021/08/16 09:57:06;;;;;;;1999.90;999.90;;;20.00;99.90;;;;;;5010609;28;20412;-68
2021/08/16 09:59:33;;;;;;;1999.90;999.90;;;20.20;99.90;;;;;;5011079;28;20408;-68
2021/08/16 10:02:02;;;;;;;1999.90;999.90;;;20.40;99.90;;;;;;5011211;28;20459;-68
2021/08/16 10:04:32;;;;;;;1999.90;999.90;;;20.50;99.90;;;;;;5009192;28;20459;-68
2021/08/16 10:06:58;;;;;;;1999.90;999.90;;;20.50;99.90;;;;;;5011596;28;20404;-68
2021/08/16 10:09:25;;;;;;;1999.90;999.90;;;20.60;99.90;;;;;;5011055;28;20409;-69
2021/08/16 10:11:52;;;;;;;1999.90;999.90;;;20.80;99.90;;;;;;5010582;28;20429;-70
2021/08/16 10:14:22;;;;;;;1999.90;999.90;;;21.00;99.90;;;;;;5010594;28;20435;-69
2021/08/16 10:16:52;;;;;;;1999.90;999.90;;;21.10;99.90;;;;;;5010960;28;20422;-69
2021/08/16 10:19:37;;;;;;;1999.90;999.90;;;21.10;99.90;;;;;;5010534;28;20399;-69
2021/08/16 10:22:03;;;;;;;1999.90;999.90;;;21.10;99.90;;;;;;5010734;28;20433;-69
2021/08/16 10:24:30;;;;;;;1999.90;999.90;;;21.10;99.90;;;;;;5011027;28;20436;-69
2021/08/16 10:26:59;;;;;;;1999.90;999.90;;;21.00;99.90;;;;;;5010523;28;20376;-70
2021/08/16 10:29:26;;;;;;;1999.90;999.90;;;20.90;99.90;;;;;;5010872;28;20972;-69
2021/08/16 10:31:53;;;;;;;1999.90;999.90;;;20.90;99.90;;;;;;5010688;28;20421;-69
2021/08/16 10:34:35;;;;;;;1999.90;999.90;;;20.70;99.90;;;;;;5010466;28;20978;-68
2021/08/16 10:37:09;;;;;;;1999.90;999.90;;;20.70;99.90;;;;;;5011045;28;20404;-69
2021/08/16 10:39:43;;;;;;;1999.90;999.90;;;20.60;99.90;;;;;;5010803;28;20404;-68
2021/08/16 10:42:33;;;;;;;1999.90;999.90;;;20.50;99.90;;;;;;5010837;28;20437;-68
2021/08/16 10:45:00;;;;;;;1999.90;999.90;;;20.20;99.90;;;;;;5010435;28;20450;-69
2021/08/16 10:47:31;;;;;;;1999.90;999.90;;;20.10;99.90;;;;;;5009631;28;20429;-68
2021/08/16 10:50:18;;;;;;;1999.90;999.90;;;19.80;99.90;;;;;;5014388;28;21173;-69
2021/08/16 10:52:44;;;;;;;1999.90;999.90;;;19.60;99.90;;;;;;5014121;28;20479;-69
2021/08/16 10:55:11;;;;;;;1999.90;999.90;;;19.60;99.90;;;;;;5014194;28;20419;-68
2021/08/16 10:57:37;;;;;;;1999.90;999.90;;;19.50;99.90;;;;;;5014889;28;20412;-69
2021/08/16 11:00:05;;;;;;;1999.90;999.90;;;19.50;99.90;;;;;;5013741;28;20410;-68
2021/08/16 11:02:32;;;;;;;1999.90;999.90;;;19.60;99.90;;;;;;5014069;28;20462;-68
2021/08/16 11:04:58;;;;;;;1999.90;999.90;;;19.70;99.90;;;;;;5014286;28;20433;-68
2021/08/16 11:07:25;;;;;;;1999.90;999.90;;;19.70;99.90;;;;;;5013259;28;20522;-69
2021/08/16 11:10:07;;;;;;;1999.90;999.90;;;19.60;99.90;;;;;;5013930;28;20476;-69
2021/08/16 11:12:34;;;;;;;1999.90;999.90;;;19.40;99.90;;;;;;5014151;28;20400;-68
2021/08/16 11:15:00;;;;;;;1999.90;999.90;;;18.40;99.90;;;;;;5013893;28;20420;-69
2021/08/16 11:17:27;;;;;;;1999.90;999.90;;;17.80;99.90;;;;;;5013779;28;20414;-69
2021/08/16 11:19:57;;;;;;;1999.90;999.90;;;17.20;99.90;;;;;;5014499;28;20421;-68
2021/08/16 11:22:23;;;;;;;1999.90;999.90;;;17.00;99.90;;;;;;5014186;28;20489;-68
2021/08/16 11:24:49;;;;;;;1999.90;999.90;;;16.70;99.90;;;;;;5013422;28;20497;-69
2021/08/16 11:27:25;;;;;;;1999.90;999.90;;;16.70;99.90;;;;;;5014010;28;20488;-69
2021/08/16 11:30:03;;;;;;;1999.90;999.90;;;16.60;99.90;;;;;;5013849;28;20182;-68
2021/08/16 11:32:30;;;;;;;1999.90;999.90;;;16.60;99.90;;;;;;5003778;28;20475;-69
2021/08/16 11:34:58;;;;;;;1999.90;999.90;;;16.50;99.90;;;;;;5012842;28;20407;-68
2021/08/16 11:37:33;;;;;;;1999.90;999.90;;;16.50;99.90;;;;;;5013975;28;20437;-68
2021/08/16 11:40:00;;;;;;;1999.90;999.90;;;16.50;99.90;;;;;;5013414;28;20411;-68
2021/08/16 11:42:26;;;;;;;1999.90;999.90;;;16.50;99.90;;;;;;5013270;28;20463;-70
2021/08/16 11:45:04;;;;;;;1999.90;999.90;;;16.60;99.90;;;;;;5011563;28;20443;-69
2021/08/16 11:47:35;;;;;;;1999.90;999.90;;;16.60;99.90;;;;;;5013218;28;20420;-69
2021/08/16 11:50:03;;;;;;;1999.90;999.90;;;16.60;99.90;;;;;;5013315;28;20416;-68
2021/08/16 11:52:29;;;;;;;1999.90;999.90;;;16.60;99.90;;;;;;5012583;28;20432;-69
2021/08/16 11:54:55;;;;;;;1999.90;999.90;;;16.50;99.90;;;;;;5011754;28;21127;-69
2021/08/16 11:57:25;;;;;;;1999.90;999.90;;;16.50;99.90;;;;;;5013392;28;20437;-67